Flight Track Log - Related Links

Times and Time Zones

All times are in EDT time to prevent confusion due to time zone crossing. See the EJA324 flight status page for this flight to view local times or setup timezone preferences in your user account.

Time Position Orientation Groundspeed Altitude Reporting Facility
EDT Latitude Longitude Course Direction KTS MPH feet Rate Location/Type
Fri 03:01:41 PM 40.7667 -74.4333 270° West 171 197 2,400  Level New York TRACON
Fri 03:02:41 PM 40.7333 -74.3667 123° Southeast 210 242 6,100 3,350 Climbing New York TRACON
Fri 03:03:41 PM 40.7667 -74.3167 49° Northeast 247 284 9,100 1,950 Climbing New York TRACON
Fri 03:04:41 PM 40.8333 -74.3833 323° Northwest 299 344 10,000 1,450 Climbing New York TRACON
Fri 03:05:41 PM 40.8667 -74.4667 298° West 293 337 12,000 2,059 Climbing New York TRACON
Fri 03:07:00 PM 40.7667 -75.2910 270° West  Level FlightAware Approximate
Fri 03:08:05 PM 40.9375 -74.6469 298° West 230 265 17,000  Level New York Center
Fri 03:09:03 PM 40.9069 -74.7522 249° West 278 320 17,000  Level New York Center
Fri 03:10:03 PM 40.8711 -74.8872 251° West 344 396 17,000 397 Level New York Center
Fri 03:11:04 PM 40.8356 -75.0114 249° West 364 419 17,800 1,686 Climbing New York Center
Fri 03:12:04 PM 40.8042 -75.1244 250° West 358 412 20,400 2,331 Climbing New York Center
Fri 03:13:05 PM 40.7875 -75.2358 259° West 341 392 22,500 1,736 Climbing New York Center
Fri 03:14:05 PM 40.7689 -75.3469 258° West 330 380 23,900 1,525 Climbing New York Center
Fri 03:15:03 PM 40.7325 -75.4758 250° West 337 388 25,500 1,576 Climbing New York Center
Fri 03:16:03 PM 40.6881 -75.5933 244° Southwest 349 402 27,000 1,488 Climbing New York Center
Fri 03:17:04 PM 40.6433 -75.7161 244° Southwest 361 415 28,500 1,475 Climbing New York Center
Fri 03:18:05 PM 40.5967 -75.8383 243° Southwest 367 422 30,000 1,462 Climbing New York Center
Fri 03:19:03 PM 40.5503 -75.9469 241° Southwest 379 436 31,400 1,450 Climbing New York Center
Fri 03:20:05 PM 40.5053 -76.0692 244° Southwest 379 436 32,900 1,300 Climbing New York Center
Fri 03:21:03 PM 40.4581 -76.1911 243° Southwest 379 436 34,000 1,059 Climbing New York Center
Fri 03:22:04 PM 40.4125 -76.3183 245° Southwest 379 436 35,000 992 Climbing New York Center
Fri 03:23:04 PM 40.3631 -76.4397 242° Southwest 379 436 36,000 1,000 Climbing New York Center
Fri 03:24:04 PM 40.3397 -76.5767 257° West 379 436 37,000 992 Climbing New York Center
Fri 03:25:05 PM 40.3283 -76.7172 264° West 384 442 38,000 984 Climbing New York Center
Fri 03:26:06 PM 40.3192 -76.8581 265° West 391 450 39,000 1,017 Climbing New York Center
Fri 03:27:03 PM 40.3100 -76.9961 265° West 391 450 40,000 508 Climbing New York Center
Fri 03:28:04 PM 40.3003 -77.1369 265° West 386 444 40,000  Level New York Center
Fri 03:29:05 PM 40.2919 -77.2911 266° West 386 444 40,000  Level New York Center
Fri 03:30:03 PM 40.2825 -77.4211 265° West 386 444 40,000  Level New York Center
Fri 03:32:07 PM 40.2611 -77.7397 265° West 400 460 40,000  Level Cleveland Center
Fri 03:33:07 PM 40.2519 -77.8764 265° West 413 475 40,000  Level Cleveland Center
Fri 03:34:07 PM 40.2347 -78.0403 262° West 413 475 40,000  Level Cleveland Center
Fri 03:35:07 PM 40.2233 -78.1875 264° West 413 475 40,000  Level Cleveland Center
Fri 03:36:07 PM 40.2117 -78.3347 264° West 413 475 40,000  Level Cleveland Center
Fri 03:37:07 PM 40.2000 -78.4819 264° West 413 475 40,000  Level Cleveland Center
Fri 03:38:07 PM 40.1858 -78.6292 263° West 408 470 40,000  Level Cleveland Center
Fri 03:39:07 PM 40.1758 -78.7761 265° West 408 470 40,000  Level Cleveland Center
Fri 03:40:07 PM 40.1614 -78.9233 263° West 408 470 40,000  Level Cleveland Center
Fri 03:41:07 PM 40.1489 -79.0703 264° West 408 470 40,000  Level Cleveland Center
Fri 03:42:07 PM 40.1444 -79.2169 268° West 408 470 40,000  Level Cleveland Center
Fri 03:43:07 PM 40.1503 -79.3664 273° West 408 470 40,000  Level Cleveland Center
Fri 03:44:07 PM 40.1539 -79.5100 272° West 408 470 40,000  Level Cleveland Center
Fri 03:45:07 PM 40.1572 -79.6622 272° West 408 470 40,000  Level Cleveland Center
Fri 03:46:07 PM 40.1606 -79.8117 272° West 408 470 40,000  Level Cleveland Center
Fri 03:47:07 PM 40.1592 -79.9556 269° West 408 470 40,000  Level Cleveland Center
Fri 03:48:07 PM 40.1619 -80.1078 271° West 408 470 40,000  Level Cleveland Center
Fri 03:49:07 PM 40.1647 -80.2544 271° West 408 470 40,000  Level Cleveland Center
Fri 03:50:07 PM 40.1692 -80.3875 273° West 408 470 40,000  Level Cleveland Center
Fri 03:51:07 PM 40.1714 -80.5342 271° West 408 470 40,000  Level Cleveland Center
Fri 03:52:07 PM 40.1756 -80.6808 272° West 408 470 40,000  Level Cleveland Center
Fri 03:54:18 PM 40.1742 -81.0203 270° West 411 473 40,000  Level Indianapolis Center
Fri 03:55:20 PM 40.1722 -81.1669 269° West 402 463 40,000  Level Indianapolis Center
Fri 03:56:21 PM 40.1700 -81.3147 269° West 403 464 40,000  Level Indianapolis Center
Fri 03:57:23 PM 40.1692 -81.4622 270° West 400 460 40,000  Level Indianapolis Center
Fri 03:58:24 PM 40.1664 -81.6117 269° West 406 467 40,000  Level Indianapolis Center
Fri 03:59:26 PM 40.1719 -81.7708 273° West 404 465 40,000  Level Indianapolis Center
Fri 04:00:28 PM 40.1769 -81.9211 273° West 408 470 40,000  Level Indianapolis Center
Fri 04:01:29 PM 40.1806 -82.0681 272° West 404 465 40,000  Level Indianapolis Center
Fri 04:02:31 PM 40.1864 -82.2147 273° West 401 461 40,000  Level Indianapolis Center
Fri 04:03:32 PM 40.1897 -82.3603 272° West 399 459 40,000  Level Indianapolis Center
Fri 04:04:34 PM 40.1944 -82.5033 273° West 393 452 40,000  Level Indianapolis Center
Fri 04:05:35 PM 40.1981 -82.6444 272° West 387 445 40,000  Level Indianapolis Center
Fri 04:06:37 PM 40.2019 -82.7850 272° West 385 443 40,000  Level Indianapolis Center
Fri 04:07:38 PM 40.2047 -82.9231 272° West 380 437 40,000  Level Indianapolis Center
Fri 04:08:40 PM 40.2086 -83.0622 272° West 381 438 40,000  Level Indianapolis Center
Fri 04:09:41 PM 40.2119 -83.2231 272° West 380 437 40,000  Level Indianapolis Center
Fri 04:10:43 PM 40.2153 -83.3608 272° West 378 435 40,000  Level Indianapolis Center
Fri 04:11:44 PM 40.2175 -83.4989 271° West 379 436 40,000  Level Indianapolis Center
Fri 04:12:46 PM 40.2206 -83.6369 272° West 380 437 40,000  Level Indianapolis Center
Fri 04:13:47 PM 40.2225 -83.7747 271° West 378 435 40,000  Level Indianapolis Center
Fri 04:14:48 PM 40.2244 -83.9122 271° West 378 435 40,000  Level Indianapolis Center
Fri 04:15:50 PM 40.2267 -84.0492 271° West 377 434 40,000  Level Indianapolis Center
Fri 04:16:51 PM 40.2292 -84.1867 271° West 376 433 40,000  Level Indianapolis Center
Fri 04:17:53 PM 40.2300 -84.3236 271° West 375 432 40,000  Level Indianapolis Center
Fri 04:18:54 PM 40.2319 -84.4839 271° West 376 433 40,000  Level Indianapolis Center
Fri 04:19:56 PM 40.2322 -84.6219 270° West 377 434 40,000  Level Indianapolis Center
Fri 04:20:57 PM 40.2333 -84.7597 271° West 377 434 40,000  Level Indianapolis Center
Fri 04:21:59 PM 40.2353 -84.8986 271° West 378 435 40,000  Level Indianapolis Center
Fri 04:23:00 PM 40.2356 -85.0250 270° West 379 436 40,000  Level Indianapolis Center
Fri 04:24:02 PM 40.2358 -85.1617 270° West 380 437 40,000  Level Indianapolis Center
Fri 04:25:03 PM 40.2369 -85.3258 271° West 380 437 40,000  Level Indianapolis Center
Fri 04:26:04 PM 40.2383 -85.4633 271° West 380 437 40,000  Level Indianapolis Center
Fri 04:27:06 PM 40.2439 -85.6006 273° West 381 438 40,000  Level Indianapolis Center
Fri 04:28:07 PM 40.2486 -85.7394 273° West 384 442 40,000  Level Indianapolis Center
Fri 04:29:22 PM 40.2542 -85.9056 273° West 386 444 40,000  Level Chicago Center
Fri 04:30:24 PM 40.2589 -86.0453 273° West 388 447 40,000  Level Chicago Center
Fri 04:31:26 PM 40.2642 -86.2114 272° West 385 443 40,000  Level Chicago Center
Fri 04:32:28 PM 40.2686 -86.3528 272° West 391 450 40,000  Level Chicago Center
Fri 04:33:30 PM 40.2711 -86.4928 271° West 390 449 40,000  Level Chicago Center
Fri 04:34:32 PM 40.2756 -86.6331 272° West 390 449 40,000  Level Chicago Center
Fri 04:35:34 PM 40.2781 -86.7731 271° West 392 451 40,000  Level Chicago Center
Fri 04:36:36 PM 40.2819 -86.9419 272° West 389 448 40,000  Level Chicago Center
Fri 04:37:38 PM 40.2853 -87.0828 272° West 391 450 40,000  Level Chicago Center
Fri 04:38:40 PM 40.2875 -87.2228 271° West 390 449 40,000  Level Chicago Center
Fri 04:39:42 PM 40.2903 -87.3625 272° West 387 445 40,000  Level Chicago Center
Fri 04:40:44 PM 40.2919 -87.5108 271° West 390 449 40,000  Level Chicago Center
Fri 04:41:46 PM 40.2933 -87.6500 271° West 387 445 40,000  Level Chicago Center
Fri 04:42:48 PM 40.2911 -87.8189 269° West 389 448 40,000  Level Chicago Center
Fri 04:43:50 PM 40.2897 -87.9614 269° West 393 452 40,000  Level Chicago Center
Fri 04:44:52 PM 40.2875 -88.1069 269° West 400 460 40,000  Level Chicago Center
Fri 04:45:54 PM 40.2858 -88.2503 269° West 397 457 40,000  Level Chicago Center
Fri 04:46:56 PM 40.2831 -88.3956 269° West 399 459 40,000  Level Chicago Center
Fri 04:47:58 PM 40.2808 -88.5483 269° West 405 466 40,000  Level Chicago Center
Fri 04:49:00 PM 40.2775 -88.6958 268° West 407 468 40,000  Level Chicago Center
Fri 04:50:02 PM 40.2744 -88.8450 269° West 410 472 40,000  Level Chicago Center
Fri 04:51:04 PM 40.2644 -89.0253 266° West 413 475 40,000  Level Chicago Center
Fri 04:52:06 PM 40.2539 -89.1772 265° West 418 481 40,000  Level Chicago Center
Fri 04:53:08 PM 40.2442 -89.3297 265° West 420 483 40,000  Level Chicago Center
Fri 04:54:09 PM 40.2350 -89.4850 266° West 425 489 40,000  Level Chicago Center
Fri 04:55:11 PM 40.2244 -89.6406 265° West 428 493 40,000  Level Chicago Center
Fri 04:56:13 PM 40.2142 -89.7961 265° West 425 489 40,000  Level Chicago Center
Fri 04:57:15 PM 40.2028 -89.9542 265° West 435 501 40,000  Level Chicago Center
Fri 04:58:17 PM 40.1936 -90.1111 266° West 434 499 40,000  Level Chicago Center
Fri 04:59:19 PM 40.1800 -90.3006 265° West 436 502 40,000  Level Chicago Center
Fri 05:00:22 PM 40.1692 -90.4594 265° West 439 505 40,000  Level Chicago Center
Fri 05:01:24 PM 40.1597 -90.6078 265° West 439 505 40,000  Level Chicago Center
Fri 05:02:26 PM 40.1456 -90.7658 263° West 441 507 40,000  Level Chicago Center
Fri 05:03:28 PM 40.1319 -90.9558 265° West 442 509 40,000  Level Chicago Center
Fri 05:04:30 PM 40.1208 -91.1139 265° West 441 507 40,000  Level Chicago Center
Fri 05:05:32 PM 40.1075 -91.2719 264° West 441 507 40,000  Level Chicago Center
Fri 05:06:34 PM 40.0947 -91.4306 264° West 443 510 40,000  Level Chicago Center
Fri 05:07:36 PM 40.0822 -91.5897 264° West 443 510 40,000  Level Chicago Center
Fri 05:08:38 PM 40.0669 -91.7814 264° West 445 512 40,000  Level Chicago Center
Fri 05:09:39 PM 40.0525 -91.9403 263° West 444 511 40,000  Level Chicago Center
Fri 05:11:04 PM 40.0342 -92.1658 264° West 447 514 40,000  Level Kansas City Center
Fri 05:12:06 PM 40.0194 -92.3272 263° West 448 516 40,000  Level Kansas City Center
Fri 05:13:08 PM 40.0047 -92.4903 263° West 450 518 40,000  Level Kansas City Center
Fri 05:14:09 PM 39.9903 -92.6539 263° West 452 520 40,000  Level Kansas City Center
Fri 05:15:11 PM 39.9750 -92.8169 263° West 453 521 40,000  Level Kansas City Center
Fri 05:16:13 PM 39.9603 -92.9808 263° West 455 524 40,000  Level Kansas City Center
Fri 05:17:15 PM 39.9433 -93.1769 264° West 456 525 40,000  Level Kansas City Center
Fri 05:18:16 PM 39.9253 -93.3386 262° West 455 524 40,000  Level Kansas City Center
Fri 05:19:18 PM 39.9092 -93.5008 263° West 454 522 40,000  Level Kansas City Center
Fri 05:20:20 PM 39.8961 -93.6628 264° West 453 521 40,000  Level Kansas City Center
Fri 05:21:21 PM 39.8781 -93.8219 262° West 452 520 40,000  Level Kansas City Center
Fri 05:22:23 PM 39.8619 -93.9811 263° West 448 516 40,000  Level Kansas City Center
Fri 05:23:25 PM 39.8422 -94.1769 263° West 450 518 40,000  Level Kansas City Center
Fri 05:24:27 PM 39.8267 -94.3306 263° West 449 517 40,000  Level Kansas City Center
Fri 05:25:28 PM 39.8100 -94.4850 262° West 453 521 40,000  Level Kansas City Center
Fri 05:26:30 PM 39.7903 -94.6661 262° West 453 521 40,000  Level Kansas City Center
Fri 05:27:32 PM 39.7742 -94.8206 262° West 452 520 40,000  Level Kansas City Center
Fri 05:28:34 PM 39.7542 -94.9994 262° West 451 519 40,000  Level Kansas City Center
Fri 05:29:35 PM 39.7361 -95.1539 261° West 453 521 40,000  Level Kansas City Center
Fri 05:30:37 PM 39.7156 -95.3331 262° West 452 520 40,000  Level Kansas City Center
Fri 05:31:39 PM 39.6981 -95.4867 262° West 451 519 40,000  Level Kansas City Center
Fri 05:32:40 PM 39.6775 -95.6650 262° West 450 518 40,000  Level Kansas City Center
Fri 05:33:42 PM 39.6589 -95.8172 261° West 448 516 40,000  Level Kansas City Center
Fri 05:34:44 PM 39.6364 -95.9953 261° West 450 518 40,000  Level Kansas City Center
Fri 05:35:46 PM 39.6183 -96.1464 261° West 446 513 40,000  Level Kansas City Center
Fri 05:36:47 PM 39.5969 -96.3225 261° West 444 511 40,000  Level Kansas City Center
Fri 05:37:49 PM 39.5789 -96.4725 261° West 443 510 40,000  Level Kansas City Center
Fri 05:38:51 PM 39.5603 -96.6219 261° West 442 509 40,000  Level Kansas City Center
Fri 05:39:52 PM 39.5389 -96.7947 261° West 437 503 40,000  Level Kansas City Center
Fri 05:40:54 PM 39.5175 -96.9489 260° West 440 506 40,000  Level Kansas City Center
Fri 05:41:56 PM 39.4953 -97.1175 260° West 438 504 40,000  Level Kansas City Center
Fri 05:42:58 PM 39.4769 -97.2658 261° West 437 503 40,000  Level Kansas City Center
Fri 05:43:59 PM 39.4525 -97.4386 260° West 437 503 40,000  Level Kansas City Center
Fri 05:45:01 PM 39.4328 -97.5992 261° West 439 505 40,000  Level Kansas City Center
Fri 05:46:03 PM 39.4122 -97.7542 260° West 437 503 40,000  Level Kansas City Center
Fri 05:47:04 PM 39.3903 -97.9061 259° West 432 497 40,000  Level Kansas City Center
Fri 05:48:06 PM 39.3706 -98.0536 260° West 433 498 40,000  Level Kansas City Center
Fri 05:49:08 PM 39.3478 -98.2164 260° West 438 504 40,000  Level Kansas City Center
Fri 05:50:09 PM 39.3247 -98.3733 259° West 441 507 40,000  Level Kansas City Center
Fri 05:51:11 PM 39.3028 -98.5294 260° West 441 507 40,000  Level Kansas City Center
Fri 05:52:13 PM 39.2803 -98.6953 260° West 433 498 40,000  Level Kansas City Center
Fri 05:53:14 PM 39.2586 -98.8453 259° West 439 505 40,000  Level Kansas City Center
Fri 05:54:16 PM 39.2331 -99.0183 259° West 443 510 40,000  Level Kansas City Center
Fri 05:55:18 PM 39.2100 -99.1728 259° West 440 506 40,000  Level Kansas City Center
Fri 05:56:19 PM 39.1864 -99.3292 259° West 444 511 40,000  Level Kansas City Center
Fri 05:57:21 PM 39.1628 -99.4828 259° West 441 507 40,000  Level Kansas City Center
Fri 05:58:22 PM 39.1364 -99.6525 259° West 439 505 40,000  Level Kansas City Center
Fri 05:59:50 PM 39.1011 -99.8722 258° West 439 505 40,000  Level Denver Center
Fri 06:00:52 PM 39.0747 -100.0478 259° West 441 507 40,000  Level Denver Center
Fri 06:01:54 PM 39.0514 -100.1925 258° West 435 501 40,000  Level Denver Center
Fri 06:02:56 PM 39.0272 -100.3411 258° West 440 506 40,000  Level Denver Center
Fri 06:03:57 PM 38.9992 -100.5125 258° West 440 506 40,000  Level Denver Center
Fri 06:04:59 PM 38.9764 -100.6575 259° West 443 510 40,000  Level Denver Center
Fri 06:06:01 PM 38.9486 -100.8311 258° West 446 513 40,000  Level Denver Center
Fri 06:07:02 PM 38.9236 -100.9775 258° West 441 507 40,000  Level Denver Center
Fri 06:08:04 PM 38.8953 -101.1494 258° West 443 510 40,000  Level Denver Center
Fri 06:09:06 PM 38.8706 -101.2967 258° West 442 509 40,000  Level Denver Center
Fri 06:10:08 PM 38.8411 -101.4669 258° West 440 506 40,000  Level Denver Center
Fri 06:11:09 PM 38.8161 -101.6139 258° West 443 510 40,000  Level Denver Center
Fri 06:12:11 PM 38.7875 -101.7839 258° West 440 506 40,000  Level Denver Center
Fri 06:13:12 PM 38.7619 -101.9303 257° West 441 507 40,000  Level Denver Center
Fri 06:14:14 PM 38.7314 -102.1006 257° West 442 509 40,000  Level Denver Center
Fri 06:15:16 PM 38.7053 -102.2483 257° West 445 512 40,000  Level Denver Center
Fri 06:16:17 PM 38.6789 -102.3953 257° West 445 512 40,000  Level Denver Center
Fri 06:17:19 PM 38.6483 -102.5681 257° West 447 514 40,000  Level Denver Center
Fri 06:18:21 PM 38.6214 -102.7128 257° West 440 506 40,000  Level Denver Center
Fri 06:19:22 PM 38.5908 -102.8772 257° West 437 503 40,000  Level Denver Center
Fri 06:20:24 PM 38.5642 -103.0250 257° West 435 501 40,000  Level Denver Center
Fri 06:21:25 PM 38.5328 -103.1925 257° West 436 502 40,000  Level Denver Center
Fri 06:22:27 PM 38.5053 -103.3367 256° West 435 501 40,000  Level Denver Center
Fri 06:23:29 PM 38.4756 -103.4967 257° West 434 499 40,000  Level Denver Center
Fri 06:24:30 PM 38.4481 -103.6392 256° West 434 499 40,000  Level Denver Center
Fri 06:25:32 PM 38.4167 -103.8025 256° West 428 493 40,000  Level Denver Center
Fri 06:26:33 PM 38.3903 -103.9419 256° West 425 489 40,000  Level Denver Center
Fri 06:27:35 PM 38.3628 -104.0831 256° West 429 494 40,000  Level Denver Center
Fri 06:28:36 PM 38.3303 -104.2478 256° West 433 498 40,000  Level Denver Center
Fri 06:29:38 PM 38.3033 -104.3881 256° West 428 493 40,000  Level Denver Center
Fri 06:30:39 PM 38.2703 -104.5500 255° West 425 489 40,000  Level Denver Center
Fri 06:31:41 PM 38.2428 -104.6894 256° West 426 490 40,000  Level Denver Center
Fri 06:32:42 PM 38.2097 -104.8522 256° West 427 491 40,000  Level Denver Center
Fri 06:33:44 PM 38.1811 -104.9911 255° West 425 489 40,000  Level Denver Center
Fri 06:34:45 PM 38.1483 -105.1528 256° West 424 488 40,000  Level Denver Center
Fri 06:35:47 PM 38.1197 -105.2911 255° West 424 488 40,000  Level Denver Center
Fri 06:36:48 PM 38.0917 -105.4283 255° West 420 483 40,000  Level Denver Center
Fri 06:37:50 PM 38.0586 -105.5872 255° West 418 481 40,000  Level Denver Center
Fri 06:38:51 PM 38.0289 -105.7250 255° West 422 486 40,000  Level Denver Center
Fri 06:39:52 PM 38.0044 -105.8397 255° West 423 487 40,000  Level Denver Center
Fri 06:40:54 PM 37.9650 -106.0231 255° West 423 487 40,000  Level Denver Center
Fri 06:41:56 PM 37.9350 -106.1608 255° West 423 487 40,000 -341 Level Denver Center
Fri 06:42:57 PM 37.8997 -106.3217 255° West 425 489 39,300 -984 Descending Denver Center
Fri 06:43:58 PM 37.8703 -106.4594 255° West 424 488 38,000 -1,415 Descending Denver Center
Fri 06:45:00 PM 37.8372 -106.6117 255° West 427 491 36,400 -1,561 Descending Denver Center
Fri 06:46:01 PM 37.8036 -106.7639 254° West 434 499 34,800 -1,623 Descending Denver Center
Fri 06:47:02 PM 37.7719 -106.9053 254° West 438 504 33,100 -1,951 Descending Denver Center
Fri 06:48:04 PM 37.7356 -107.0658 254° West 428 493 30,800 -2,049 Descending Denver Center
Fri 06:49:05 PM 37.7058 -107.2022 255° West 422 486 28,900 -2,016 Descending Denver Center
Fri 06:50:06 PM 37.6592 -107.3500 248° West 420 483 26,700 -2,000 Descending Denver Center
Fri 06:51:08 PM 37.5800 -107.4450 224° Southwest 411 473 24,800 -1,902 Descending Denver Center
Fri 06:52:09 PM 37.5269 -107.5639 241° Southwest 407 468 22,800 -2,049 Descending Denver Center
Fri 06:53:11 PM 37.4903 -107.7039 252° West 391 450 20,600 -2,049 Descending Denver Center
Fri 06:54:12 PM 37.4764 -107.8278 262° West 378 435 18,600 -1,756 Descending Denver Center
Fri 06:55:14 PM 37.5128 -107.9411 292° West 334 384 17,000 -780 Descending Denver Center
Fri 06:56:15 PM 37.5878 -108.0128 323° Northwest 349 402 17,000 -195 Level Denver Center
Fri 06:57:17 PM 37.6325 -108.1053 301° West 346 398 16,600 -976 Descending Denver Center
Fri 06:58:18 PM 37.5761 -108.2239 239° Southwest 358 412 15,000 -1,230 Descending Denver Center
Fri 06:59:19 PM 37.5281 -108.3125 236° Southwest 338 389 14,100 -1,512 Descending Denver Center
Fri 07:00:21 PM 37.4783 -108.4044 236° Southwest 305 351 11,900 -2,000 Descending Denver Center
Fri 07:01:22 PM 37.4306 -108.4722 228° Southwest 287 330 10,000 -1,869 Descending Denver Center

Login

Don't have an account? Register now (free) for customized features, flight alerts, and more!